sensor_id;sensor_type;location;lat;lon;timestamp;P1;durP1;ratioP1;P2;durP2;ratioP2
3401;SDS011;1714;49.756;8.610;2023-02-03T04:34:54;4.43;;;1.67;;
3401;SDS011;1714;49.756;8.610;2023-02-03T04:45:30;2.53;;;1.70;;
3401;SDS011;1714;49.756;8.610;2023-02-03T04:56:05;3.97;;;1.48;;
3401;SDS011;1714;49.756;8.610;2023-02-03T05:06:41;4.05;;;1.48;;
3401;SDS011;1714;49.756;8.610;2023-02-03T05:17:17;2.25;;;1.63;;
3401;SDS011;1714;49.756;8.610;2023-02-03T05:27:53;6.70;;;2.20;;
3401;SDS011;1714;49.756;8.610;2023-02-03T05:38:28;3.38;;;2.20;;
3401;SDS011;1714;49.756;8.610;2023-02-03T05:49:04;4.50;;;2.40;;
3401;SDS011;1714;49.756;8.610;2023-02-03T05:59:40;5.53;;;2.17;;
3401;SDS011;1714;49.756;8.610;2023-02-03T06:10:16;2.90;;;2.40;;
3401;SDS011;1714;49.756;8.610;2023-02-03T06:20:52;3.55;;;2.58;;
3401;SDS011;1714;49.756;8.610;2023-02-03T06:31:28;6.13;;;2.60;;
3401;SDS011;1714;49.756;8.610;2023-02-03T06:42:03;5.90;;;2.90;;
3401;SDS011;1714;49.756;8.610;2023-02-03T06:52:39;9.95;;;2.08;;
3401;SDS011;1714;49.756;8.610;2023-02-03T07:03:15;2.88;;;2.05;;
3401;SDS011;1714;49.756;8.610;2023-02-03T07:13:52;5.15;;;1.98;;
3401;SDS011;1714;49.756;8.610;2023-02-03T07:24:28;2.05;;;1.40;;
3401;SDS011;1714;49.756;8.610;2023-02-03T07:35:04;2.83;;;1.80;;
3401;SDS011;1714;49.756;8.610;2023-02-03T07:45:40;2.25;;;1.77;;
3401;SDS011;1714;49.756;8.610;2023-02-03T07:56:16;4.65;;;1.55;;
3401;SDS011;1714;49.756;8.610;2023-02-03T08:06:51;5.68;;;1.65;;
3401;SDS011;1714;49.756;8.610;2023-02-03T08:17:27;5.72;;;2.22;;
3401;SDS011;1714;49.756;8.610;2023-02-03T08:28:03;6.07;;;1.67;;
3401;SDS011;1714;49.756;8.610;2023-02-03T08:38:39;3.65;;;1.50;;
3401;SDS011;1714;49.756;8.610;2023-02-03T08:49:16;2.47;;;1.67;;
3401;SDS011;1714;49.756;8.610;2023-02-03T08:59:51;3.58;;;1.25;;
3401;SDS011;1714;49.756;8.610;2023-02-03T09:10:28;3.42;;;2.05;;
3401;SDS011;1714;49.756;8.610;2023-02-03T09:21:06;2.05;;;1.65;;
3401;SDS011;1714;49.756;8.610;2023-02-03T09:31:55;1.30;;;1.05;;
3401;SDS011;1714;49.756;8.610;2023-02-03T09:53:49;2.92;;;1.55;;
3401;SDS011;1714;49.756;8.610;2023-02-03T10:04:33;2.78;;;1.38;;
3401;SDS011;1714;49.756;8.610;2023-02-03T10:15:43;3.03;;;1.33;;
3401;SDS011;1714;49.756;8.610;2023-02-03T10:26:26;1.42;;;0.90;;
3401;SDS011;1714;49.756;8.610;2023-02-03T10:47:57;1.30;;;0.70;;
3401;SDS011;1714;49.756;8.610;2023-02-03T10:58:33;1.30;;;1.00;;
3401;SDS011;1714;49.756;8.610;2023-02-03T11:20:17;1.92;;;1.30;;
3401;SDS011;1714;49.756;8.610;2023-02-03T11:30:55;1.85;;;0.65;;
3401;SDS011;1714;49.756;8.610;2023-02-03T11:41:35;2.03;;;0.90;;
3401;SDS011;1714;49.756;8.610;2023-02-03T12:03:08;0.88;;;0.85;;
3401;SDS011;1714;49.756;8.610;2023-02-03T12:13:53;1.17;;;1.00;;
3401;SDS011;1714;49.756;8.610;2023-02-03T12:24:50;2.00;;;0.70;;
3401;SDS011;1714;49.756;8.610;2023-02-03T12:46:17;0.60;;;0.55;;
3401;SDS011;1714;49.756;8.610;2023-02-03T12:56:59;1.63;;;0.60;;
3401;SDS011;1714;49.756;8.610;2023-02-03T13:07:46;2.17;;;0.70;;
3401;SDS011;1714;49.756;8.610;2023-02-03T13:18:33;2.92;;;0.68;;
3401;SDS011;1714;49.756;8.610;2023-02-03T13:29:26;0.60;;;0.40;;
3401;SDS011;1714;49.756;8.610;2023-02-03T13:51:21;1.60;;;0.40;;
3401;SDS011;1714;49.756;8.610;2023-02-03T14:12:55;0.70;;;0.70;;
3401;SDS011;1714;49.756;8.610;2023-02-03T14:34:14;1.30;;;0.60;;
3401;SDS011;1714;49.756;8.610;2023-02-03T15:06:35;1.00;;;0.47;;
3401;SDS011;1714;49.756;8.610;2023-02-03T15:17:21;1.17;;;0.70;;
3401;SDS011;1714;49.756;8.610;2023-02-03T15:28:17;6.38;;;2.30;;
3401;SDS011;1714;49.756;8.610;2023-02-03T15:38:56;4.22;;;2.58;;
3401;SDS011;1714;49.756;8.610;2023-02-03T15:49:44;1.98;;;1.45;;
3401;SDS011;1714;49.756;8.610;2023-02-03T16:00:29;1.00;;;0.82;;
3401;SDS011;1714;49.756;8.610;2023-02-03T16:11:20;0.80;;;0.77;;
3401;SDS011;1714;49.756;8.610;2023-02-03T16:22:01;6.47;;;5.13;;
3401;SDS011;1714;49.756;8.610;2023-02-03T16:32:37;1.10;;;1.00;;
3401;SDS011;1714;49.756;8.610;2023-02-03T16:43:31;1.60;;;0.88;;
3401;SDS011;1714;49.756;8.610;2023-02-03T16:54:26;1.25;;;0.82;;
3401;SDS011;1714;49.756;8.610;2023-02-03T17:05:02;0.70;;;0.70;;
3401;SDS011;1714;49.756;8.610;2023-02-03T17:15:41;1.25;;;0.85;;
3401;SDS011;1714;49.756;8.610;2023-02-03T17:26:22;2.55;;;1.00;;
3401;SDS011;1714;49.756;8.610;2023-02-03T17:36:57;2.85;;;1.30;;
3401;SDS011;1714;49.756;8.610;2023-02-03T17:47:33;0.90;;;0.75;;
3401;SDS011;1714;49.756;8.610;2023-02-03T17:58:26;6.40;;;5.53;;
3401;SDS011;1714;49.756;8.610;2023-02-03T18:09:03;4.88;;;4.38;;
3401;SDS011;1714;49.756;8.610;2023-02-03T18:19:40;1.13;;;0.80;;
3401;SDS011;1714;49.756;8.610;2023-02-03T18:30:23;1.25;;;0.90;;
3401;SDS011;1714;49.756;8.610;2023-02-03T18:41:05;3.00;;;2.80;;
3401;SDS011;1714;49.756;8.610;2023-02-03T18:51:42;2.13;;;1.90;;
3401;SDS011;1714;49.756;8.610;2023-02-03T19:02:18;1.38;;;1.23;;
3401;SDS011;1714;49.756;8.610;2023-02-03T19:12:53;2.65;;;2.38;;
3401;SDS011;1714;49.756;8.610;2023-02-03T19:23:29;2.00;;;1.17;;
3401;SDS011;1714;49.756;8.610;2023-02-03T19:34:05;2.30;;;1.70;;
3401;SDS011;1714;49.756;8.610;2023-02-03T19:44:40;3.80;;;2.45;;
3401;SDS011;1714;49.756;8.610;2023-02-03T19:55:16;4.85;;;2.60;;
3401;SDS011;1714;49.756;8.610;2023-02-03T20:05:51;6.03;;;3.47;;
3401;SDS011;1714;49.756;8.610;2023-02-03T20:16:27;5.07;;;2.80;;
3401;SDS011;1714;49.756;8.610;2023-02-03T20:27:03;4.75;;;2.45;;
3401;SDS011;1714;49.756;8.610;2023-02-03T20:37:39;6.25;;;2.53;;
3401;SDS011;1714;49.756;8.610;2023-02-03T20:48:15;4.05;;;2.47;;
3401;SDS011;1714;49.756;8.610;2023-02-03T20:58:53;8.27;;;2.67;;
3401;SDS011;1714;49.756;8.610;2023-02-03T21:09:29;11.90;;;2.40;;
3401;SDS011;1714;49.756;8.610;2023-02-03T21:20:06;15.50;;;2.97;;
3401;SDS011;1714;49.756;8.610;2023-02-03T21:30:56;14.55;;;3.35;;
3401;SDS011;1714;49.756;8.610;2023-02-03T21:41:33;14.50;;;2.75;;
3401;SDS011;1714;49.756;8.610;2023-02-03T21:52:12;17.52;;;4.32;;
3401;SDS011;1714;49.756;8.610;2023-02-03T22:02:54;12.35;;;3.17;;
3401;SDS011;1714;49.756;8.610;2023-02-03T22:13:32;9.80;;;2.85;;
3401;SDS011;1714;49.756;8.610;2023-02-03T22:24:07;12.48;;;3.42;;
